createdAt,value
2023-10-02T00:02:36.713Z,100.00
2023-10-02T00:05:06.903Z,100.00
2023-10-02T00:07:38.436Z,100.00
2023-10-02T00:10:06.388Z,100.00
2023-10-02T00:12:35.855Z,100.00
2023-10-02T00:15:14.856Z,100.00
2023-10-02T00:17:45.338Z,100.00
2023-10-02T00:20:22.144Z,100.00
2023-10-02T00:22:49.378Z,100.00
2023-10-02T00:25:18.254Z,100.00
2023-10-02T00:27:49.783Z,100.00
2023-10-02T00:30:17.822Z,100.00
2023-10-02T00:32:47.316Z,100.00
2023-10-02T00:35:15.621Z,100.00
2023-10-02T00:37:47.174Z,100.00
2023-10-02T00:40:24.002Z,100.00
2023-10-02T00:42:56.466Z,100.00
2023-10-02T00:45:31.180Z,100.00
2023-10-02T00:48:19.390Z,100.00
2023-10-02T00:50:55.317Z,100.00
2023-10-02T00:53:39.178Z,100.00
2023-10-02T00:56:21.330Z,100.00
2023-10-02T00:58:55.923Z,100.00
2023-10-02T01:01:26.919Z,100.00
2023-10-02T01:04:11.488Z,100.00
2023-10-02T01:06:55.575Z,100.00
2023-10-02T01:09:26.949Z,100.00
2023-10-02T01:11:59.292Z,100.00
2023-10-02T01:14:49.735Z,100.00
2023-10-02T01:17:18.468Z,100.00
2023-10-02T01:19:55.793Z,100.00
2023-10-02T01:22:38.358Z,100.00
2023-10-02T01:25:16.426Z,100.00
2023-10-02T01:27:49.495Z,100.00
2023-10-02T01:30:21.414Z,100.00
2023-10-02T01:33:12.606Z,100.00
2023-10-02T01:35:41.681Z,100.00
2023-10-02T01:38:15.311Z,100.00
2023-10-02T01:40:55.511Z,100.00
2023-10-02T01:43:25.510Z,100.00
2023-10-02T01:45:57.885Z,100.00
2023-10-02T01:48:39.125Z,100.00
2023-10-02T01:51:21.200Z,100.00
2023-10-02T01:53:49.782Z,100.00
2023-10-02T01:56:18.281Z,100.00
2023-10-02T01:58:46.641Z,100.00
2023-10-02T02:01:14.011Z,100.00
2023-10-02T02:03:42.334Z,100.00
2023-10-02T02:06:10.175Z,100.00
2023-10-02T02:08:44.754Z,100.00
2023-10-02T02:11:18.157Z,100.00
2023-10-02T02:13:49.540Z,100.00
2023-10-02T02:16:22.985Z,100.00
2023-10-02T02:18:52.126Z,100.00
2023-10-02T02:21:20.267Z,100.00
2023-10-02T02:23:49.704Z,100.00
2023-10-02T02:26:23.262Z,100.00
2023-10-02T02:28:52.575Z,100.00
2023-10-02T02:31:32.314Z,100.00
2023-10-02T02:34:04.775Z,100.00
2023-10-02T02:36:36.461Z,100.00
2023-10-02T02:39:17.223Z,100.00
2023-10-02T02:41:47.705Z,100.00
2023-10-02T02:44:36.396Z,100.00
2023-10-02T02:47:08.628Z,100.00
2023-10-02T02:49:49.832Z,100.00
2023-10-02T02:52:17.896Z,100.00
2023-10-02T02:54:49.103Z,100.00
2023-10-02T02:57:19.468Z,100.00
2023-10-02T02:59:47.793Z,100.00
2023-10-02T03:02:23.287Z,100.00
2023-10-02T03:04:51.733Z,100.00
2023-10-02T03:07:30.787Z,100.00
2023-10-02T03:10:00.010Z,100.00
2023-10-02T03:12:28.607Z,100.00
2023-10-02T03:14:56.399Z,100.00
2023-10-02T03:17:31.462Z,100.00
2023-10-02T03:20:01.650Z,100.00
2023-10-02T03:22:29.595Z,100.00
2023-10-02T03:25:19.020Z,100.00
2023-10-02T03:27:45.713Z,100.00
2023-10-02T03:30:35.982Z,100.00
2023-10-02T03:33:05.068Z,100.00
2023-10-02T03:35:41.135Z,100.00
2023-10-02T03:38:07.789Z,100.00
2023-10-02T03:40:36.064Z,100.00
2023-10-02T03:43:19.997Z,100.00
2023-10-02T03:45:47.715Z,100.00
2023-10-02T03:48:16.176Z,100.00
2023-10-02T03:50:42.845Z,100.00
2023-10-02T03:53:13.913Z,100.00
2023-10-02T03:55:41.185Z,100.00
2023-10-02T03:58:10.600Z,100.00
2023-10-02T04:00:47.369Z,100.00
2023-10-02T04:03:15.759Z,100.00
2023-10-02T04:05:42.335Z,100.00
2023-10-02T04:08:36.401Z,100.00
2023-10-02T04:11:05.925Z,100.00
2023-10-02T04:13:35.954Z,100.00
2023-10-02T04:16:22.497Z,100.00
2023-10-02T04:19:00.023Z,100.00
2023-10-02T04:21:28.404Z,100.00
2023-10-02T04:23:55.734Z,100.00
2023-10-02T04:26:24.007Z,100.00
2023-10-02T04:29:01.043Z,100.00
2023-10-02T04:31:30.216Z,100.00
2023-10-02T04:34:15.816Z,100.00
2023-10-02T04:36:45.458Z,100.00
2023-10-02T04:39:33.226Z,100.00
2023-10-02T04:42:12.935Z,100.00
2023-10-02T04:44:47.805Z,100.00
2023-10-02T04:47:21.008Z,100.00
2023-10-02T04:50:04.970Z,100.00
2023-10-02T04:52:53.461Z,100.00
2023-10-02T04:55:25.406Z,100.00
2023-10-02T04:57:55.517Z,100.00
2023-10-02T05:00:36.393Z,100.00
2023-10-02T05:03:18.968Z,100.00
2023-10-02T05:05:54.504Z,100.00
2023-10-02T05:08:23.155Z,100.00
2023-10-02T05:10:57.767Z,100.00
2023-10-02T05:13:44.000Z,100.00
2023-10-02T05:16:13.460Z,100.00
2023-10-02T05:18:48.568Z,100.00
2023-10-02T05:21:18.916Z,100.00
2023-10-02T05:23:57.650Z,100.00
2023-10-02T05:26:34.099Z,100.00
2023-10-02T05:29:07.390Z,100.00
2023-10-02T05:31:42.532Z,100.00
2023-10-02T05:34:23.068Z,100.00
2023-10-02T05:37:06.029Z,100.00
2023-10-02T05:39:40.860Z,100.00
2023-10-02T05:42:16.349Z,100.00
2023-10-02T05:44:44.466Z,100.00
2023-10-02T05:47:12.451Z,100.00
2023-10-02T05:49:44.817Z,100.00
2023-10-02T05:52:12.994Z,100.00
2023-10-02T05:54:48.188Z,100.00
2023-10-02T05:57:15.176Z,100.00
2023-10-02T05:59:56.189Z,100.00
2023-10-02T06:02:24.243Z,100.00
2023-10-02T06:04:55.447Z,100.00
2023-10-02T06:07:41.968Z,100.00
2023-10-02T06:10:10.252Z,100.00
2023-10-02T06:12:43.583Z,100.00
2023-10-02T06:15:31.404Z,100.00
2023-10-02T06:18:00.075Z,100.00
2023-10-02T06:20:26.711Z,100.00
2023-10-02T06:23:06.792Z,100.00
2023-10-02T06:25:33.707Z,100.00
2023-10-02T06:28:20.216Z,100.00
2023-10-02T06:30:49.097Z,100.00
2023-10-02T06:33:15.926Z,100.00
2023-10-02T06:35:46.092Z,100.00
2023-10-02T06:38:19.452Z,100.00
2023-10-02T06:40:56.922Z,100.00
2023-10-02T06:43:30.346Z,99.59
2023-10-02T06:46:14.957Z,99.66
2023-10-02T06:48:45.288Z,99.39
2023-10-02T06:51:12.908Z,98.35
2023-10-02T06:53:42.247Z,97.62
2023-10-02T06:56:11.987Z,97.92
2023-10-02T06:58:53.682Z,97.16
2023-10-02T07:01:20.646Z,96.68
2023-10-02T07:03:54.192Z,95.95
2023-10-02T07:06:21.634Z,95.62
2023-10-02T07:09:11.030Z,95.93
2023-10-02T07:11:40.227Z,96.43
2023-10-02T07:14:07.385Z,95.57
2023-10-02T07:16:35.201Z,95.39
2023-10-02T07:19:08.461Z,95.47
2023-10-02T07:21:36.945Z,94.50
2023-10-02T07:24:05.455Z,93.07
2023-10-02T07:26:52.402Z,93.50
2023-10-02T07:29:20.510Z,92.32
2023-10-02T07:31:47.921Z,92.50
2023-10-02T07:34:17.057Z,91.82
2023-10-02T07:36:46.865Z,91.27
2023-10-02T07:39:49.538Z,90.13
2023-10-02T07:42:17.350Z,90.05
2023-10-02T07:44:43.867Z,88.77
2023-10-02T07:47:12.459Z,88.29
2023-10-02T07:49:45.225Z,88.57
2023-10-02T07:52:12.884Z,87.51
2023-10-02T07:54:45.770Z,87.21
2023-10-02T07:57:14.344Z,87.46
2023-10-02T07:59:44.778Z,86.99
2023-10-02T08:02:24.601Z,86.75
2023-10-02T08:04:52.930Z,86.52
2023-10-02T08:07:22.748Z,86.99
2023-10-02T08:09:56.955Z,85.99
2023-10-02T08:12:35.231Z,86.62
2023-10-02T08:15:27.962Z,87.04
2023-10-02T08:17:55.164Z,86.48
2023-10-02T08:20:26.124Z,86.26
2023-10-02T08:22:53.728Z,86.76
2023-10-02T08:25:24.816Z,86.01
2023-10-02T08:27:58.967Z,86.92
2023-10-02T08:30:33.669Z,86.32
2023-10-02T08:33:20.275Z,85.89
2023-10-02T08:35:56.219Z,86.11
2023-10-02T08:38:23.093Z,85.24
2023-10-02T08:40:58.334Z,84.96
2023-10-02T08:43:29.492Z,83.91
2023-10-02T08:45:56.883Z,83.96
2023-10-02T08:48:26.275Z,82.85
2023-10-02T08:50:59.132Z,83.08
2023-10-02T08:53:27.189Z,82.70
2023-10-02T08:56:23.396Z,82.61
2023-10-02T08:59:10.032Z,83.49
2023-10-02T09:01:36.762Z,83.48
2023-10-02T09:04:24.461Z,82.49
2023-10-02T09:06:54.542Z,82.16
2023-10-02T09:09:28.218Z,81.72
2023-10-02T09:11:58.755Z,81.51
2023-10-02T09:14:30.524Z,81.13
2023-10-02T09:17:16.606Z,80.73
2023-10-02T09:19:50.544Z,79.95
2023-10-02T09:22:19.031Z,80.56
2023-10-02T09:24:56.859Z,80.21
2023-10-02T09:27:25.549Z,79.98
2023-10-02T09:30:15.395Z,79.20
2023-10-02T09:32:49.062Z,79.10
2023-10-02T09:36:18.766Z,77.84
2023-10-02T09:38:18.481Z,77.26
2023-10-02T09:40:55.206Z,77.09
2023-10-02T09:43:25.694Z,75.40
2023-10-02T09:45:54.818Z,74.55
2023-10-02T09:48:49.766Z,74.38
2023-10-02T09:51:31.725Z,73.89
2023-10-02T09:54:06.447Z,74.02
2023-10-02T09:57:06.408Z,74.17
2023-10-02T09:59:49.237Z,72.89
2023-10-02T10:02:40.511Z,72.00
2023-10-02T10:05:11.806Z,71.89
2023-10-02T10:07:47.850Z,71.33
2023-10-02T10:10:52.494Z,71.40
2023-10-02T10:13:38.316Z,69.45
2023-10-02T10:16:19.924Z,69.58
2023-10-02T10:19:15.734Z,68.39
2023-10-02T10:21:57.939Z,69.53
2023-10-02T10:24:33.292Z,69.31
2023-10-02T10:27:00.265Z,68.76
2023-10-02T10:29:42.202Z,68.52
2023-10-02T10:32:25.535Z,67.64
2023-10-02T10:35:13.067Z,68.26
2023-10-02T10:37:42.108Z,67.52
2023-10-02T10:40:28.919Z,67.82
2023-10-02T10:43:00.712Z,66.74
2023-10-02T10:45:34.689Z,67.36
2023-10-02T10:48:02.987Z,67.34
2023-10-02T10:50:31.127Z,66.69
2023-10-02T10:53:03.432Z,66.34
2023-10-02T10:55:33.806Z,64.86
2023-10-02T10:58:07.055Z,65.74
2023-10-02T11:00:40.708Z,65.32
2023-10-02T11:03:10.419Z,66.49
2023-10-02T11:05:38.636Z,67.30
2023-10-02T11:08:25.247Z,67.50
2023-10-02T11:11:12.729Z,68.07
2023-10-02T11:13:53.204Z,66.73
2023-10-02T11:16:23.614Z,66.55
2023-10-02T11:19:34.015Z,66.38
2023-10-02T11:22:20.535Z,67.13
2023-10-02T11:24:54.597Z,67.38
2023-10-02T11:27:23.141Z,67.67
2023-10-02T11:30:04.515Z,67.35
2023-10-02T11:32:51.636Z,67.27
2023-10-02T11:35:19.044Z,67.86
2023-10-02T11:37:47.627Z,67.67
2023-10-02T11:40:14.671Z,67.84
2023-10-02T11:42:41.592Z,68.28
2023-10-02T11:45:09.160Z,67.94
2023-10-02T11:47:36.057Z,67.88
2023-10-02T11:50:03.209Z,68.70
2023-10-02T11:52:30.451Z,68.17
2023-10-02T11:54:56.900Z,68.03
2023-10-02T11:57:23.472Z,68.06
2023-10-02T11:59:51.219Z,67.69
2023-10-02T12:02:18.546Z,68.37
2023-10-02T12:04:45.911Z,68.59
2023-10-02T12:07:17.893Z,69.59
2023-10-02T12:09:48.647Z,69.34
2023-10-02T12:12:15.627Z,69.83
2023-10-02T12:14:43.665Z,69.44
2023-10-02T12:17:13.001Z,70.17
2023-10-02T12:19:41.161Z,70.17
2023-10-02T12:22:10.904Z,70.32
2023-10-02T12:24:38.479Z,70.54
2023-10-02T12:27:05.980Z,70.02
2023-10-02T12:29:33.309Z,70.40
2023-10-02T12:32:02.825Z,70.56
2023-10-02T12:34:29.756Z,70.67
2023-10-02T12:36:56.790Z,69.91
2023-10-02T12:39:27.460Z,70.61
2023-10-02T12:41:53.930Z,70.27
2023-10-02T12:44:20.485Z,69.87
2023-10-02T12:46:51.418Z,70.19
2023-10-02T12:49:22.195Z,69.98
2023-10-02T12:51:51.959Z,70.20
2023-10-02T12:54:20.125Z,69.63
2023-10-02T12:56:47.246Z,69.01
2023-10-02T12:59:14.055Z,69.87
2023-10-02T13:01:40.646Z,69.85
2023-10-02T13:04:08.081Z,69.64
2023-10-02T13:06:35.305Z,69.56
2023-10-02T13:09:15.552Z,70.19
2023-10-02T13:11:45.501Z,70.21
2023-10-02T13:14:19.663Z,69.80
2023-10-02T13:16:47.762Z,69.78
2023-10-02T13:19:14.291Z,69.78
2023-10-02T13:21:42.253Z,68.34
2023-10-02T13:24:16.792Z,68.68
2023-10-02T13:26:44.296Z,67.34
2023-10-02T13:29:11.264Z,67.56
2023-10-02T13:31:38.410Z,68.64
2023-10-02T13:34:08.100Z,68.49
2023-10-02T13:36:35.566Z,68.10
2023-10-02T13:39:05.936Z,68.60
2023-10-02T13:41:36.223Z,69.17
2023-10-02T13:44:05.402Z,68.99
2023-10-02T13:46:36.188Z,69.60
2023-10-02T13:49:03.372Z,70.06
2023-10-02T13:51:30.358Z,70.69
2023-10-02T13:53:57.329Z,70.24
2023-10-02T13:56:27.598Z,70.52
2023-10-02T13:58:54.806Z,70.40
2023-10-02T14:01:25.727Z,71.43
2023-10-02T14:03:53.911Z,70.88
2023-10-02T14:06:24.250Z,71.56
2023-10-02T14:08:51.548Z,71.66
2023-10-02T14:11:20.023Z,71.84
2023-10-02T14:13:50.722Z,72.20
2023-10-02T14:16:22.194Z,72.24
2023-10-02T14:18:57.634Z,72.25
2023-10-02T14:21:25.398Z,72.42
2023-10-02T14:23:53.540Z,72.59
2023-10-02T14:26:21.258Z,72.66
2023-10-02T14:28:47.962Z,73.37
2023-10-02T14:31:36.769Z,73.82
2023-10-02T14:34:08.151Z,74.50
2023-10-02T14:36:35.515Z,74.93
2023-10-02T14:39:05.278Z,74.91
2023-10-02T14:41:32.673Z,75.02
2023-10-02T14:43:59.483Z,74.48
2023-10-02T14:46:26.168Z,74.85
2023-10-02T14:48:54.471Z,75.03
2023-10-02T14:51:21.153Z,75.37
2023-10-02T14:53:47.677Z,75.50
2023-10-02T14:56:14.370Z,75.38
2023-10-02T14:58:48.522Z,76.07
2023-10-02T15:01:18.686Z,75.85
2023-10-02T15:03:48.395Z,75.92
2023-10-02T15:06:15.349Z,76.67
2023-10-02T15:08:42.352Z,76.43
2023-10-02T15:11:14.466Z,76.53
2023-10-02T15:13:42.102Z,77.14
2023-10-02T15:16:13.068Z,77.65
2023-10-02T15:18:40.764Z,78.56
2023-10-02T15:21:12.103Z,78.49
2023-10-02T15:23:41.065Z,79.01
2023-10-02T15:26:07.972Z,79.45
2023-10-02T15:28:34.805Z,80.21
2023-10-02T15:31:01.869Z,80.24
2023-10-02T15:33:36.529Z,80.80
2023-10-02T15:36:03.179Z,80.79
2023-10-02T15:38:31.067Z,81.22
2023-10-02T15:41:00.534Z,81.46
2023-10-02T15:43:27.574Z,81.46
2023-10-02T15:45:55.143Z,81.82
2023-10-02T15:48:23.420Z,81.88
2023-10-02T15:50:50.345Z,81.90
2023-10-02T15:53:18.824Z,82.31
2023-10-02T15:55:45.334Z,82.60
2023-10-02T15:58:13.363Z,82.90
2023-10-02T16:00:41.383Z,83.18
2023-10-02T16:03:09.264Z,83.22
2023-10-02T16:05:36.364Z,83.67
2023-10-02T16:08:03.548Z,84.05
2023-10-02T16:10:30.338Z,84.02
2023-10-02T16:12:58.348Z,83.98
2023-10-02T16:15:28.782Z,84.18
2023-10-02T16:17:59.949Z,84.17
2023-10-02T16:20:27.555Z,84.45
2023-10-02T16:22:58.026Z,84.76
2023-10-02T16:25:24.868Z,85.09
2023-10-02T16:27:53.762Z,85.00
2023-10-02T16:30:23.895Z,85.61
2023-10-02T16:32:51.033Z,85.96
2023-10-02T16:35:20.163Z,86.52
2023-10-02T16:37:49.296Z,86.74
2023-10-02T16:40:20.847Z,86.93
2023-10-02T16:42:49.331Z,87.60
2023-10-02T16:45:17.056Z,87.23
2023-10-02T16:47:45.290Z,87.74
2023-10-02T16:50:16.800Z,88.22
2023-10-02T16:52:45.414Z,88.36
2023-10-02T16:55:16.939Z,88.33
2023-10-02T16:57:47.182Z,88.73
2023-10-02T17:00:14.572Z,88.87
2023-10-02T17:02:42.538Z,89.39
2023-10-02T17:05:13.706Z,89.79
2023-10-02T17:07:42.021Z,89.79
2023-10-02T17:10:19.733Z,90.42
2023-10-02T17:12:51.304Z,90.49
2023-10-02T17:15:19.766Z,91.31
2023-10-02T17:17:49.087Z,92.62
2023-10-02T17:20:23.552Z,92.79
2023-10-02T17:22:50.958Z,93.72
2023-10-02T17:25:28.142Z,94.22
2023-10-02T17:28:00.057Z,95.12
2023-10-02T17:30:27.645Z,95.97
2023-10-02T17:32:54.968Z,96.08
2023-10-02T17:35:22.083Z,96.67
2023-10-02T17:37:49.394Z,97.02
2023-10-02T17:40:16.921Z,97.12
2023-10-02T17:42:44.654Z,97.65
2023-10-02T17:45:11.294Z,97.88
2023-10-02T17:47:43.288Z,98.43
2023-10-02T17:50:12.235Z,98.46
2023-10-02T17:52:42.644Z,98.73
2023-10-02T17:55:10.326Z,99.06
2023-10-02T17:57:37.589Z,99.24
2023-10-02T18:00:05.512Z,99.33
2023-10-02T18:02:50.152Z,99.68
2023-10-02T18:08:01.540Z,100.00
2023-10-02T18:10:28.316Z,100.00
2023-10-02T18:12:54.914Z,100.00
2023-10-02T18:15:21.835Z,100.00
2023-10-02T18:17:48.737Z,100.00
2023-10-02T18:20:19.286Z,100.00
2023-10-02T18:22:46.721Z,100.00
2023-10-02T18:25:13.414Z,100.00
2023-10-02T18:27:40.548Z,100.00
2023-10-02T18:30:09.412Z,100.00
2023-10-02T18:32:37.852Z,100.00
2023-10-02T18:35:05.742Z,100.00
2023-10-02T18:37:34.787Z,100.00
2023-10-02T18:40:08.834Z,100.00
2023-10-02T18:42:36.359Z,100.00
2023-10-02T18:45:05.325Z,100.00
2023-10-02T18:47:32.666Z,100.00
2023-10-02T18:49:59.484Z,100.00
2023-10-02T18:52:25.959Z,100.00
2023-10-02T18:54:52.469Z,100.00
2023-10-02T18:57:18.972Z,100.00
2023-10-02T18:59:46.422Z,100.00
2023-10-02T19:02:13.016Z,100.00
2023-10-02T19:04:39.500Z,100.00
2023-10-02T19:07:06.297Z,100.00
2023-10-02T19:09:34.782Z,100.00
2023-10-02T19:12:01.448Z,100.00
2023-10-02T19:14:28.097Z,100.00
2023-10-02T19:16:54.654Z,100.00
2023-10-02T19:19:21.261Z,100.00
2023-10-02T19:21:48.609Z,100.00
2023-10-02T19:24:15.465Z,100.00
2023-10-02T19:26:43.411Z,100.00
2023-10-02T19:29:10.112Z,100.00
2023-10-02T19:31:37.448Z,100.00
2023-10-02T19:34:04.265Z,100.00
2023-10-02T19:36:30.733Z,100.00
2023-10-02T19:38:57.824Z,100.00
2023-10-02T19:41:24.707Z,100.00
2023-10-02T19:43:53.848Z,100.00
2023-10-02T19:46:20.819Z,100.00
2023-10-02T19:48:49.381Z,100.00
2023-10-02T19:51:16.285Z,100.00
2023-10-02T19:53:44.240Z,100.00
2023-10-02T19:56:13.296Z,100.00
2023-10-02T19:58:40.146Z,100.00
2023-10-02T20:01:06.650Z,100.00
2023-10-02T20:03:36.388Z,100.00
2023-10-02T20:06:10.461Z,100.00
2023-10-02T20:08:38.989Z,100.00
2023-10-02T20:11:06.430Z,100.00
2023-10-02T20:13:34.171Z,100.00
2023-10-02T20:16:01.112Z,100.00
2023-10-02T20:18:28.377Z,100.00
2023-10-02T20:20:55.451Z,100.00
2023-10-02T20:25:48.793Z,100.00
2023-10-02T20:28:15.692Z,100.00
2023-10-02T20:30:43.662Z,100.00
2023-10-02T20:33:12.227Z,100.00
2023-10-02T20:35:42.483Z,100.00
2023-10-02T20:38:13.700Z,100.00
2023-10-02T20:40:43.592Z,100.00
2023-10-02T20:43:11.235Z,100.00
2023-10-02T20:45:37.999Z,100.00
2023-10-02T20:48:07.051Z,100.00
2023-10-02T20:50:36.842Z,100.00
2023-10-02T20:53:03.427Z,100.00
2023-10-02T20:55:29.905Z,100.00
2023-10-02T20:57:57.817Z,100.00
2023-10-02T21:00:25.078Z,100.00
2023-10-02T21:02:52.943Z,100.00
2023-10-02T21:05:19.764Z,100.00
2023-10-02T21:07:46.412Z,100.00
2023-10-02T21:10:12.966Z,100.00
2023-10-02T21:12:39.955Z,100.00
2023-10-02T21:15:15.494Z,100.00
2023-10-02T21:17:43.033Z,100.00
2023-10-02T21:20:12.774Z,100.00
2023-10-02T21:22:39.302Z,100.00
2023-10-02T21:25:10.196Z,100.00
2023-10-02T21:27:38.913Z,100.00
2023-10-02T21:30:12.800Z,100.00
2023-10-02T21:32:42.476Z,100.00
2023-10-02T21:35:10.117Z,100.00
2023-10-02T21:37:37.163Z,100.00
2023-10-02T21:40:07.309Z,100.00
2023-10-02T21:42:34.823Z,100.00
2023-10-02T21:45:02.120Z,100.00
2023-10-02T21:47:30.150Z,100.00
2023-10-02T21:49:56.810Z,100.00
2023-10-02T21:52:23.337Z,100.00
2023-10-02T21:54:49.875Z,100.00
2023-10-02T21:57:16.952Z,100.00
2023-10-02T21:59:43.609Z,100.00
2023-10-02T22:02:11.794Z,100.00
2023-10-02T22:04:41.523Z,100.00
2023-10-02T22:07:08.602Z,100.00
2023-10-02T22:09:35.200Z,100.00
2023-10-02T22:12:02.137Z,100.00
2023-10-02T22:14:29.718Z,100.00
2023-10-02T22:16:59.276Z,100.00
2023-10-02T22:19:26.350Z,100.00
2023-10-02T22:21:53.002Z,100.00
2023-10-02T22:24:21.942Z,100.00
2023-10-02T22:26:48.779Z,100.00
2023-10-02T22:29:15.529Z,100.00
2023-10-02T22:31:43.427Z,100.00
2023-10-02T22:34:10.900Z,100.00
2023-10-02T22:36:37.722Z,100.00
2023-10-02T22:39:04.651Z,100.00
2023-10-02T22:41:34.227Z,100.00
2023-10-02T22:44:00.833Z,100.00
2023-10-02T22:46:27.943Z,100.00
2023-10-02T22:48:55.545Z,100.00
2023-10-02T22:51:22.182Z,100.00
2023-10-02T22:53:51.351Z,100.00
2023-10-02T22:56:17.830Z,100.00
2023-10-02T22:58:44.363Z,100.00
2023-10-02T23:01:11.017Z,100.00
2023-10-02T23:03:38.878Z,100.00
2023-10-02T23:06:06.085Z,100.00
2023-10-02T23:08:34.455Z,100.00
2023-10-02T23:11:06.616Z,100.00
2023-10-02T23:13:34.358Z,100.00
2023-10-02T23:16:01.854Z,100.00
2023-10-02T23:18:29.226Z,100.00
2023-10-02T23:20:59.508Z,100.00
2023-10-02T23:23:26.673Z,100.00
2023-10-02T23:25:55.562Z,100.00
2023-10-02T23:28:22.066Z,100.00
2023-10-02T23:30:48.519Z,100.00
2023-10-02T23:33:16.877Z,100.00
2023-10-02T23:35:44.611Z,100.00
2023-10-02T23:38:12.756Z,100.00
2023-10-02T23:40:45.203Z,100.00
2023-10-02T23:43:15.331Z,100.00
2023-10-02T23:45:43.354Z,100.00
2023-10-02T23:48:20.489Z,100.00
2023-10-02T23:50:51.103Z,100.00
2023-10-02T23:53:25.016Z,100.00
2023-10-02T23:56:14.704Z,100.00
2023-10-02T23:58:43.468Z,100.00
